Time;durP1;ratioP1;P1;durP2;ratioP2;P2;SDS_P1;SDS_P2;PMS_P1;PMS_P2;Temp;Humidity;BMP_temperature;BMP_pressure;BME280_temperature;BME280_humidity;BME280_pressure;Samples;Min_cycle;Max_cycle;Signal;HPM_P1;HPM_P2
2022/12/23 00:01:20;;;;;;;;;0.00;0.00;;;;;14.07;77.30;100057.19;5033270;28;45889;-52
2022/12/23 00:03:45;;;;;;;;;1.00;0.00;;;;;14.08;77.55;100050.97;5033997;28;45488;-52
2022/12/23 00:06:13;;;;;;;;;0.00;0.00;;;;;14.07;77.62;100063.31;5035109;28;45531;-53
2022/12/23 00:08:40;;;;;;;;;0.00;0.00;;;;;14.10;77.80;100075.53;5030356;28;45500;-54
2022/12/23 00:11:11;;;;;;;;;0.00;0.00;;;;;14.08;77.49;100072.13;5027109;28;45388;-50
2022/12/23 00:16:21;;;;;;;;;1.67;0.00;;;;;14.09;77.75;100069.38;5027572;28;45716;-53
2022/12/23 00:18:46;;;;;;;;;0.00;0.00;;;;;14.10;78.68;100064.94;5033858;28;45368;-50
2022/12/23 00:21:14;;;;;;;;;0.00;0.00;;;;;14.11;78.09;100067.50;5029263;28;45412;-54
2022/12/23 00:23:43;;;;;;;;;0.00;0.00;;;;;14.12;78.82;100073.66;5035199;28;45496;-51
2022/12/23 00:26:22;;;;;;;;;0.00;0.00;;;;;14.12;78.89;100081.56;5034695;28;45457;-53
2022/12/23 00:28:47;;;;;;;;;0.00;0.00;;;;;14.11;78.49;100086.03;5035124;28;45486;-53
2022/12/23 00:31:13;;;;;;;;;1.00;0.00;;;;;14.09;78.55;100076.47;5032124;28;45475;-53
2022/12/23 00:33:44;;;;;;;;;0.00;0.00;;;;;14.10;79.12;100078.16;5030432;28;45537;-50
2022/12/23 00:36:18;;;;;;;;;0.00;0.00;;;;;14.09;78.98;100074.66;5033431;28;46726;-54
2022/12/23 00:42:52;;;;;;;;;0.00;0.00;;;;;14.06;79.97;100071.38;5034985;28;45832;-55
2022/12/23 00:44:19;;;;;;;;;0.00;0.00;;;;;14.08;80.67;100066.84;5032878;28;45835;-53
2022/12/23 00:46:44;;;;;;;;;0.00;0.00;;;;;14.05;80.73;100072.28;5034463;28;45920;-53
2022/12/23 00:51:59;;;;;;;;;0.00;0.00;;;;;14.09;80.92;100079.13;5034665;28;45433;-53
2022/12/23 00:54:25;;;;;;;;;0.00;0.00;;;;;14.06;81.08;100079.28;5029748;28;45591;-54
2022/12/23 00:56:50;;;;;;;;;1.00;1.00;;;;;14.07;81.49;100092.41;5034223;28;45443;-54
2022/12/23 00:59:16;;;;;;;;;0.67;0.67;;;;;13.90;81.34;100068.75;5032843;28;45483;-54
2022/12/23 01:07:09;;;;;;;;;0.00;0.00;;;;;14.04;81.77;100092.59;5021397;28;45552;-51
2022/12/23 01:09:35;;;;;;;;;0.00;0.00;;;;;13.98;81.63;100103.53;5033225;28;45476;-53
2022/12/23 01:12:00;;;;;;;;;0.00;0.00;;;;;14.06;82.46;100111.03;5034018;28;45425;-53
2022/12/23 01:14:26;;;;;;;;;0.00;0.00;;;;;14.03;82.08;100105.91;5026537;28;45662;-53
2022/12/23 01:16:51;;;;;;;;;0.00;0.00;;;;;14.04;82.14;100104.97;5025897;28;45632;-54
2022/12/23 01:19:17;;;;;;;;;0.00;0.00;;;;;14.00;81.88;100101.66;5025883;28;45473;-53
2022/12/23 01:21:42;;;;;;;;;0.00;0.00;;;;;14.04;82.14;100105.81;5016412;28;45827;-54
2022/12/23 01:24:08;;;;;;;;;0.00;0.00;;;;;14.02;82.17;100101.56;5018881;28;45567;-54
2022/12/23 01:26:33;;;;;;;;;0.00;0.00;;;;;14.00;81.98;100095.53;5032020;28;46285;-52
2022/12/23 01:28:59;;;;;;;;;0.00;0.00;;;;;14.01;82.18;100107.78;5028918;28;45535;-53
2022/12/23 01:31:25;;;;;;;;;0.00;0.00;;;;;14.00;82.78;100106.09;5034375;28;45537;-55
2022/12/23 01:33:52;;;;;;;;;1.00;0.00;;;;;13.97;81.92;100096.56;5034008;28;46133;-51
2022/12/23 01:36:17;;;;;;;;;0.00;0.00;;;;;14.01;82.46;100099.84;5033840;28;45683;-54
2022/12/23 01:38:43;;;;;;;;;0.00;0.00;;;;;14.01;82.73;100097.22;5030549;28;45456;-52
2022/12/23 01:42:42;;;;;;;;;0.00;0.00;;;;;14.00;82.47;100100.81;5033988;28;45823;-52
2022/12/23 01:44:01;;;;;;;;;0.00;0.00;;;;;13.99;82.34;100104.38;5030152;28;45408;-51
2022/12/23 01:46:27;;;;;;;;;1.00;0.00;;;;;13.98;82.33;100100.88;5032426;28;45483;-54
2022/12/23 01:48:52;;;;;;;;;0.00;0.00;;;;;13.97;82.08;100096.56;5033169;28;45656;-55
2022/12/23 01:51:24;;;;;;;;;0.00;0.00;;;;;14.03;82.00;100111.22;5032285;28;45475;-53
2022/12/23 01:53:54;;;;;;;;;1.00;1.00;;;;;14.00;81.75;100109.59;5033728;28;45528;-54
2022/12/23 01:56:35;;;;;;;;;0.00;0.00;;;;;14.01;82.70;100113.09;5026216;28;46947;-53
2022/12/23 02:03:41;;;;;;;;;1.00;1.00;;;;;14.02;82.65;100107.69;5033663;28;45391;-57
2022/12/23 02:04:47;;;;;;;;;1.00;1.00;;;;;14.03;82.02;100101.47;5033504;28;45456;-54
2022/12/23 02:09:57;;;;;;;;;1.00;1.00;;;;;14.01;82.43;100107.78;5033437;28;45464;-55
2022/12/23 02:12:57;;;;;;;;;1.00;1.00;;;;;14.00;82.47;100106.09;5032177;28;45432;-53
2022/12/23 02:18:39;;;;;;;;;1.00;1.00;;;;;14.02;81.12;100117.41;5033113;28;45667;-53
2022/12/23 02:21:11;;;;;;;;;0.33;0.33;;;;;13.99;81.85;100104.38;5021785;28;45405;-55
2022/12/23 02:24:04;;;;;;;;;1.67;1.00;;;;;13.99;81.41;100099.09;5024428;28;45476;-54
2022/12/23 02:26:44;;;;;;;;;1.00;1.00;;;;;14.01;81.59;100097.22;5020537;28;45575;-54
2022/12/23 02:29:49;;;;;;;;;1.00;1.00;;;;;13.99;81.08;100096.44;5023733;28;46731;-51
2022/12/23 02:32:20;;;;;;;;;0.00;0.00;;;;;13.99;81.40;100091.16;5017948;28;45516;-55
2022/12/23 02:34:55;;;;;;;;;1.00;1.00;;;;;13.97;80.63;100106.25;5018939;28;45547;-55
2022/12/23 02:37:31;;;;;;;;;1.00;0.00;;;;;13.95;81.15;100102.88;5027717;28;45704;-52
2022/12/23 02:40:02;;;;;;;;;0.33;0.33;;;;;13.95;80.94;100098.44;5023746;28;45573;-54
2022/12/23 02:42:40;;;;;;;;;1.33;1.00;;;;;13.91;80.97;100095.09;5035685;28;45432;-54
2022/12/23 02:45:33;;;;;;;;;1.00;1.00;;;;;13.96;80.40;100104.56;5024998;28;45616;-52
2022/12/23 02:48:05;;;;;;;;;2.67;0.00;;;;;13.93;80.25;100093.22;5030755;28;45404;-53
2022/12/23 02:50:36;;;;;;;;;2.67;1.00;;;;;13.87;80.65;100082.16;5025145;28;45556;-55
2022/12/23 02:53:09;;;;;;;;;2.33;1.67;;;;;13.93;80.64;100095.84;5031799;28;45482;-53
2022/12/23 02:55:39;;;;;;;;;1.00;1.00;;;;;13.91;79.99;100089.78;5025645;28;45503;-53
2022/12/23 02:58:09;;;;;;;;;1.67;1.67;;;;;13.93;80.44;100090.56;5031931;28;45471;-51
2022/12/23 03:00:38;;;;;;;;;1.00;1.00;;;;;13.92;80.72;100093.31;5033898;28;46264;-54
2022/12/23 03:03:04;;;;;;;;;2.33;1.33;;;;;13.92;79.89;100106.53;5027036;28;45588;-54
2022/12/23 03:05:42;;;;;;;;;1.00;1.00;;;;;13.92;79.94;100110.03;5035279;28;45505;-54
2022/12/23 03:08:33;;;;;;;;;2.00;1.00;;;;;13.89;79.87;100099.63;5035165;28;45633;-53
2022/12/23 03:11:10;;;;;;;;;0.00;0.00;;;;;13.95;79.66;100103.72;5022326;28;47291;-53
2022/12/23 03:14:11;;;;;;;;;2.00;1.00;;;;;13.95;80.13;100094.94;5030889;28;45586;-55
2022/12/23 03:16:58;;;;;;;;;1.00;1.00;;;;;13.93;79.85;100095.00;5024953;28;45464;-54
2022/12/23 03:19:34;;;;;;;;;1.33;1.33;;;;;13.90;79.86;100085.47;5029382;28;45475;-54
2022/12/23 03:22:30;;;;;;;;;1.00;1.00;;;;;13.85;79.64;100078.72;5023666;28;45540;-55
2022/12/23 03:25:09;;;;;;;;;1.00;1.00;;;;;13.88;79.50;100083.84;5027955;28;45491;-53
2022/12/23 03:27:48;;;;;;;;;3.00;2.00;;;;;13.89;79.97;100083.78;5035652;28;45585;-53
2022/12/23 03:30:17;;;;;;;;;2.00;1.00;;;;;13.86;79.42;100083.94;5035294;28;45491;-52
2022/12/23 03:32:45;;;;;;;;;1.67;1.00;;;;;13.86;80.04;100093.66;5020895;28;45509;-53
2022/12/23 03:35:12;;;;;;;;;1.33;0.33;;;;;13.85;79.94;100084.03;5020929;28;45479;-51
2022/12/23 03:37:43;;;;;;;;;2.00;1.00;;;;;13.88;79.16;100092.63;5033076;28;45483;-52
2022/12/23 03:40:13;;;;;;;;;1.67;1.67;;;;;13.88;79.72;100095.25;5035220;28;45454;-53
2022/12/23 03:42:42;;;;;;;;;1.00;1.00;;;;;13.86;79.28;100085.72;5035098;28;46327;-50
2022/12/23 03:45:15;;;;;;;;;2.00;2.00;;;;;13.90;79.69;100098.69;5035350;28;45396;-51
2022/12/23 03:47:55;;;;;;;;;1.00;1.00;;;;;13.90;79.82;100095.19;5034525;28;45520;-54
2022/12/23 03:50:23;;;;;;;;;5.00;1.00;;;;;13.89;79.65;100082.94;5034871;28;46326;-54
2022/12/23 03:53:01;;;;;;;;;1.00;1.00;;;;;13.90;79.54;100089.91;5031842;28;45485;-52
2022/12/23 03:55:32;;;;;;;;;1.67;0.00;;;;;13.90;80.10;100096.03;5025747;28;45551;-53
2022/12/23 03:58:16;;;;;;;;;2.33;1.00;;;;;13.89;80.08;100093.50;5035304;28;45498;-53
2022/12/23 04:00:56;;;;;;;;;3.00;2.00;;;;;13.85;80.13;100092.78;5021063;28;45479;-55
2022/12/23 04:03:37;;;;;;;;;2.33;1.00;;;;;13.81;80.14;100083.34;5035278;28;47591;-54
2022/12/23 04:06:09;;;;;;;;;1.67;1.67;;;;;13.88;79.63;100091.78;5035110;28;45465;-54
2022/12/23 04:08:37;;;;;;;;;1.00;0.00;;;;;13.85;79.64;100070.81;5035678;28;45555;-54
2022/12/23 04:11:03;;;;;;;;;0.00;0.00;;;;;13.91;80.24;100065.16;5035195;28;45618;-53
2022/12/23 04:13:30;;;;;;;;;1.00;1.00;;;;;13.89;79.90;100067.06;5022211;28;46634;-53
2022/12/23 04:15:58;;;;;;;;;1.33;1.33;;;;;13.87;79.90;100061.00;5032396;28;45669;-54
2022/12/23 04:18:23;;;;;;;;;1.00;1.00;;;;;13.86;79.97;100069.84;5034738;28;45614;-54
2022/12/23 04:20:49;;;;;;;;;2.33;0.67;;;;;13.84;80.12;100064.66;5034208;28;45469;-53
2022/12/23 04:23:14;;;;;;;;;2.00;2.00;;;;;13.84;80.06;100063.84;5034617;28;45561;-54
2022/12/23 04:25:40;;;;;;;;;1.00;1.00;;;;;13.86;80.71;100077.78;5034946;28;45492;-54
2022/12/23 04:28:05;;;;;;;;;1.00;1.00;;;;;13.85;80.50;100073.44;5034971;28;45431;-53
2022/12/23 04:30:30;;;;;;;;;2.00;2.00;;;;;13.84;80.13;100077.91;5025369;28;45503;-55
2022/12/23 04:32:56;;;;;;;;;4.00;1.67;;;;;13.85;80.04;100084.03;5034243;28;45496;-54
2022/12/23 04:35:21;;;;;;;;;2.00;1.00;;;;;13.86;80.59;100083.94;5020925;28;45495;-53
2022/12/23 04:37:47;;;;;;;;;2.00;2.00;;;;;13.83;80.46;100077.97;5034960;28;45453;-55
2022/12/23 04:40:12;;;;;;;;;4.00;2.33;;;;;13.89;80.81;100077.63;5034531;28;45600;-54
2022/12/23 04:42:38;;;;;;;;;3.00;1.00;;;;;13.85;80.41;100063.72;5034347;28;45701;-53
2022/12/23 04:45:04;;;;;;;;;3.00;1.00;;;;;13.87;80.76;100066.28;5032036;28;45528;-54
2022/12/23 04:47:29;;;;;;;;;2.00;1.00;;;;;13.84;80.50;100055.91;5023837;28;45519;-52
2022/12/23 04:49:55;;;;;;;;;1.00;1.00;;;;;13.81;80.51;100038.44;5034194;28;45559;-54
2022/12/23 04:52:21;;;;;;;;;1.00;1.00;;;;;13.84;80.48;100042.69;5032938;28;46446;-54
2022/12/23 04:54:46;;;;;;;;;1.67;1.67;;;;;13.86;80.36;100041.66;5034314;28;45401;-54
2022/12/23 04:57:12;;;;;;;;;0.67;0.67;;;;;13.86;81.33;100041.66;5034359;28;45499;-54
2022/12/23 04:59:37;;;;;;;;;3.00;2.00;;;;;13.87;80.42;100038.06;5034425;28;45457;-52
2022/12/23 05:02:03;;;;;;;;;2.33;2.33;;;;;13.89;80.65;100049.41;5034096;28;46156;-53
2022/12/23 05:04:28;;;;;;;;;3.00;2.00;;;;;13.88;80.21;100047.69;5023578;28;45500;-52
2022/12/23 05:06:53;;;;;;;;;2.00;2.00;;;;;13.88;80.42;100052.13;5033155;28;45598;-54
2022/12/23 05:09:19;;;;;;;;;1.00;1.00;;;;;13.86;80.83;100043.41;5034301;28;45571;-54
2022/12/23 05:11:44;;;;;;;;;2.67;2.00;;;;;13.89;80.66;100045.91;5034149;28;45612;-54
2022/12/23 05:14:10;;;;;;;;;2.00;2.00;;;;;13.92;80.49;100045.72;5026762;28;45642;-52
2022/12/23 05:16:36;;;;;;;;;2.00;2.00;;;;;13.88;80.91;100045.03;5034199;28;45500;-54
2022/12/23 05:19:01;;;;;;;;;1.33;1.33;;;;;13.92;80.27;100057.16;5033931;28;45413;-53
2022/12/23 05:21:27;;;;;;;;;1.33;1.00;;;;;13.84;80.56;100037.41;5023227;28;45516;-55
2022/12/23 05:23:52;;;;;;;;;2.00;2.00;;;;;13.93;81.11;100047.41;5032851;28;45464;-54
2022/12/23 05:26:18;;;;;;;;;0.33;0.33;;;;;13.92;81.55;100045.72;5034119;28;45413;-54
2022/12/23 05:28:44;;;;;;;;;1.00;1.00;;;;;13.86;81.35;100032.84;5031255;28;45705;-53
2022/12/23 05:31:10;;;;;;;;;3.00;2.00;;;;;13.91;81.45;100042.22;5026814;28;45515;-52
2022/12/23 05:33:36;;;;;;;;;1.00;1.00;;;;;13.92;81.53;100043.09;5026588;28;45361;-53
2022/12/23 05:36:02;;;;;;;;;3.00;2.00;;;;;13.90;82.24;100031.75;5024645;28;45431;-53
2022/12/23 05:38:27;;;;;;;;;2.00;2.00;;;;;13.94;81.08;100049.13;5020229;28;45421;-54
2022/12/23 05:40:53;;;;;;;;;1.00;1.00;;;;;13.95;81.71;100042.91;5033882;28;45467;-54
2022/12/23 05:43:18;;;;;;;;;0.67;0.67;;;;;13.94;82.33;100033.25;5024021;28;45492;-53
2022/12/23 05:45:44;;;;;;;;;2.33;0.67;;;;;13.95;82.19;100031.47;5027702;28;45526;-54
2022/12/23 05:48:10;;;;;;;;;1.00;1.00;;;;;13.93;82.51;100026.28;5027596;28;45412;-54
2022/12/23 05:50:37;;;;;;;;;1.33;1.33;;;;;13.90;81.92;100008.81;5033532;28;45538;-52
2022/12/23 05:53:03;;;;;;;;;2.00;2.00;;;;;13.93;81.99;100013.91;5033519;28;45443;-53
2022/12/23 05:55:29;;;;;;;;;2.00;2.00;;;;;13.96;82.77;100019.97;5025783;28;45462;-54
2022/12/23 05:57:54;;;;;;;;;3.33;3.33;;;;;13.90;82.36;100014.09;5033544;28;45480;-55
2022/12/23 06:00:20;;;;;;;;;2.00;2.00;;;;;13.93;82.48;100013.91;5033267;28;46514;-52
2022/12/23 06:02:46;;;;;;;;;3.00;3.00;;;;;13.94;82.72;100009.47;5033382;28;45464;-53
2022/12/23 06:05:11;;;;;;;;;2.00;2.00;;;;;13.91;82.82;100013.13;5032349;28;45401;-52
2022/12/23 06:07:38;;;;;;;;;2.00;2.00;;;;;13.92;83.01;100009.56;5033191;28;45641;-53
2022/12/23 06:10:05;;;;;;;;;2.33;2.33;;;;;13.91;83.61;100004.34;5033409;28;45674;-54
2022/12/23 06:12:30;;;;;;;;;2.67;2.67;;;;;13.92;83.34;100006.94;5034815;28;45500;-54
2022/12/23 06:14:56;;;;;;;;;2.67;2.67;;;;;13.91;83.17;100002.56;5031582;28;45612;-52
2022/12/23 06:17:21;;;;;;;;;3.00;3.00;;;;;13.93;83.70;100003.31;5036923;28;45602;-54
2022/12/23 06:19:47;;;;;;;;;3.00;3.00;;;;;13.90;83.59;100000.03;5036866;28;45493;-55
2022/12/23 06:22:12;;;;;;;;;1.67;1.67;;;;;13.91;83.82;100002.56;5037167;28;45475;-54
2022/12/23 06:24:38;;;;;;;;;1.33;1.33;;;;;13.92;83.49;100003.44;5036458;28;45550;-52
2022/12/23 06:27:03;;;;;;;;;2.00;2.00;;;;;13.89;83.33;100009.75;5036888;28;45635;-53
2022/12/23 06:29:29;;;;;;;;;1.33;0.67;;;;;13.93;83.95;100010.41;5035591;28;46115;-53
2022/12/23 06:31:54;;;;;;;;;2.00;2.00;;;;;13.93;83.48;100011.25;5036732;28;45502;-54
2022/12/23 06:34:19;;;;;;;;;1.67;1.00;;;;;13.92;83.72;100000.78;5024896;28;45517;-54
2022/12/23 06:36:45;;;;;;;;;1.00;1.00;;;;;13.93;84.41;99999.84;5034351;28;45538;-53
2022/12/23 06:39:10;;;;;;;;;2.00;2.00;;;;;13.92;84.12;99993.72;5035231;28;45468;-52
2022/12/23 06:41:36;;;;;;;;;1.00;1.00;;;;;13.92;84.07;99977.00;5031971;28;45484;-53
2022/12/23 06:44:01;;;;;;;;;1.00;1.00;;;;;13.92;83.62;99979.66;5032687;28;45472;-55
2022/12/23 06:46:26;;;;;;;;;1.00;1.00;;;;;13.96;84.06;99978.50;5023349;28;45566;-53
2022/12/23 06:48:52;;;;;;;;;1.00;1.00;;;;;13.98;83.86;99981.06;5035626;28;46195;-55
2022/12/23 06:51:17;;;;;;;;;1.33;1.33;;;;;13.97;83.81;99984.63;5035351;28;45543;-53
2022/12/23 06:53:43;;;;;;;;;0.00;0.00;;;;;13.96;83.56;99978.50;5033709;28;45374;-52
2022/12/23 06:56:08;;;;;;;;;0.00;0.00;;;;;13.95;83.87;99968.03;5036419;28;45640;-52
2022/12/23 06:58:33;;;;;;;;;0.00;0.00;;;;;13.99;84.11;99967.75;5034865;28;47571;-55
2022/12/23 07:00:59;;;;;;;;;1.00;0.00;;;;;13.99;83.73;99962.44;5036318;28;45425;-53
2022/12/23 07:03:24;;;;;;;;;1.00;0.00;;;;;14.02;84.04;99962.25;5031558;28;45736;-51
2022/12/23 07:05:50;;;;;;;;;1.00;0.00;;;;;14.01;84.22;99957.94;5036142;28;45626;-54
2022/12/23 07:08:17;;;;;;;;;0.33;0.33;;;;;14.04;83.42;99955.09;5036255;28;45857;-54
2022/12/23 07:10:42;;;;;;;;;0.00;0.00;;;;;14.02;83.86;99950.84;5036149;28;45452;-54
2022/12/23 07:13:08;;;;;;;;;0.00;0.00;;;;;14.06;83.92;99952.38;5029277;28;45473;-52
2022/12/23 07:15:33;;;;;;;;;0.00;0.00;;;;;14.03;83.45;99944.63;5031174;28;45524;-52
2022/12/23 07:17:58;;;;;;;;;0.00;0.00;;;;;14.03;83.90;99948.13;5035784;28;46249;-55
2022/12/23 07:20:24;;;;;;;;;0.67;0.00;;;;;14.00;83.82;99950.97;5031038;28;45592;-54
2022/12/23 07:22:49;;;;;;;;;0.00;0.00;;;;;14.04;83.57;99948.97;5035983;28;45522;-54
2022/12/23 07:25:15;;;;;;;;;1.00;0.00;;;;;14.05;83.56;99943.59;5030750;28;45521;-55
2022/12/23 07:27:41;;;;;;;;;0.00;0.00;;;;;14.06;83.50;99952.38;5027003;28;45565;-55
2022/12/23 07:30:07;;;;;;;;;0.00;0.00;;;;;14.08;83.51;99946.06;5016513;28;45534;-54
2022/12/23 07:32:32;;;;;;;;;0.00;0.00;;;;;14.08;83.44;99950.50;5029741;28;45553;-54
2022/12/23 07:34:57;;;;;;;;;0.00;0.00;;;;;14.07;83.29;99949.63;5026042;28;45477;-54
2022/12/23 07:37:23;;;;;;;;;0.00;0.00;;;;;14.09;83.68;99947.75;5024203;28;46859;-55
2022/12/23 07:39:48;;;;;;;;;0.00;0.00;;;;;14.10;83.09;99948.59;5035338;28;45511;-54
2022/12/23 07:42:13;;;;;;;;;0.00;0.00;;;;;14.08;83.40;99946.06;5023759;28;45560;-55
2022/12/23 07:44:39;;;;;;;;;0.00;0.00;;;;;13.96;83.77;99932.72;5035491;28;45556;-55
2022/12/23 07:47:04;;;;;;;;;1.00;1.00;;;;;14.08;83.45;99955.78;5033470;28;45755;-56
2022/12/23 07:49:29;;;;;;;;;0.00;0.00;;;;;14.06;83.12;99958.50;5035112;28;45456;-55
2022/12/23 07:51:55;;;;;;;;;0.00;0.00;;;;;14.05;83.05;99943.59;5035226;28;45517;-55
2022/12/23 07:54:20;;;;;;;;;0.00;0.00;;;;;14.04;83.53;99941.88;5026874;28;45470;-54
2022/12/23 07:56:45;;;;;;;;;0.00;0.00;;;;;14.09;83.72;99950.38;5034987;28;45522;-55
2022/12/23 07:59:10;;;;;;;;;1.00;0.00;;;;;14.11;82.92;99945.03;5032050;28;45675;-56
2022/12/23 08:01:36;;;;;;;;;0.00;0.00;;;;;14.10;82.46;99933.59;5026074;28;45448;-58
2022/12/23 08:04:01;;;;;;;;;1.00;1.00;;;;;14.11;83.25;99935.28;5033186;28;45421;-58
2022/12/23 08:06:27;;;;;;;;;0.67;0.67;;;;;14.15;82.49;99941.22;5034962;28;46371;-53
2022/12/23 08:08:52;;;;;;;;;0.67;0.67;;;;;14.11;82.43;99935.28;5029701;28;45808;-54
2022/12/23 08:11:17;;;;;;;;;0.00;0.00;;;;;14.17;83.19;99938.50;5030420;28;45543;-55
2022/12/23 08:13:43;;;;;;;;;0.33;0.33;;;;;14.19;83.14;99939.28;5032904;28;45831;-54
2022/12/23 08:16:10;;;;;;;;;0.00;0.00;;;;;14.16;83.62;99945.59;5034380;28;46586;-55
2022/12/23 08:18:38;;;;;;;;;0.00;0.00;;;;;14.20;83.06;99941.81;5034118;28;45538;-54
2022/12/23 08:21:16;;;;;;;;;0.00;0.00;;;;;14.19;82.73;99932.19;5033660;28;45495;-55
2022/12/23 08:23:42;;;;;;;;;0.00;0.00;;;;;14.20;82.16;99918.00;5034682;28;45566;-55
2022/12/23 08:26:09;;;;;;;;;0.00;0.00;;;;;14.23;83.27;99922.25;5034195;28;45471;-56
2022/12/23 08:28:36;;;;;;;;;1.00;0.00;;;;;14.21;82.73;99914.44;5029331;28;45645;-55
2022/12/23 08:31:04;;;;;;;;;2.33;1.00;;;;;14.24;81.85;99919.53;5034359;28;45376;-55
2022/12/23 08:33:29;;;;;;;;;0.00;0.00;;;;;14.18;83.24;99914.59;5029059;28;45547;-54
2022/12/23 08:35:55;;;;;;;;;0.00;0.00;;;;;14.23;82.45;99928.38;5024897;28;45486;-55
2022/12/23 08:38:20;;;;;;;;;1.33;0.00;;;;;14.25;82.82;99921.22;5034433;28;45540;-55
2022/12/23 08:40:45;;;;;;;;;0.00;0.00;;;;;14.23;81.98;99909.03;5031475;28;45480;-55
2022/12/23 08:43:11;;;;;;;;;1.00;1.00;;;;;14.23;83.07;99904.59;5028828;28;45522;-55
2022/12/23 08:45:37;;;;;;;;;1.33;0.67;;;;;14.28;82.37;99909.59;5032020;28;47349;-53
2022/12/23 08:48:04;;;;;;;;;1.00;0.00;;;;;14.28;82.19;99899.88;5034115;28;45511;-54
2022/12/23 08:50:30;;;;;;;;;0.00;0.00;;;;;14.30;82.42;99894.50;5033684;28;45583;-54
2022/12/23 08:52:55;;;;;;;;;0.00;0.00;;;;;14.25;82.38;99886.84;5034065;28;45714;-56
2022/12/23 08:55:20;;;;;;;;;0.00;0.00;;;;;14.29;82.74;99888.34;5033573;28;46103;-56
2022/12/23 08:57:46;;;;;;;;;0.33;0.33;;;;;14.27;82.70;99890.25;5033839;28;45408;-54
2022/12/23 09:00:11;;;;;;;;;0.67;0.00;;;;;14.24;82.50;99873.69;5033894;28;45509;-55
2022/12/23 09:02:37;;;;;;;;;0.00;0.00;;;;;14.29;82.55;99864.56;5034024;28;45536;-55
2022/12/23 09:05:02;;;;;;;;;0.00;0.00;;;;;14.32;82.46;99867.00;5033889;28;45621;-56
2022/12/23 09:07:27;;;;;;;;;0.00;0.00;;;;;14.33;82.14;99855.47;5029238;28;45418;-56
2022/12/23 09:09:53;;;;;;;;;0.00;0.00;;;;;14.29;82.28;99810.78;5024525;28;45467;-55
2022/12/23 09:12:18;;;;;;;;;1.00;1.00;;;;;14.36;82.09;99806.81;5030270;28;45480;-56
2022/12/23 09:14:46;;;;;;;;;2.00;1.00;;;;;14.31;82.10;99770.06;5033420;28;46487;-55
2022/12/23 09:17:12;;;;;;;;;0.00;0.00;;;;;14.33;81.88;99751.47;5033366;28;45539;-55
2022/12/23 09:19:37;;;;;;;;;0.00;0.00;;;;;14.19;82.82;99727.69;5033923;28;45475;-55
2022/12/23 09:22:02;;;;;;;;;0.00;0.00;;;;;14.35;82.31;99760.16;5032548;28;45562;-55
2022/12/23 09:24:28;;;;;;;;;0.33;0.33;;;;;14.36;81.94;99780.34;5033421;28;46211;-54
2022/12/23 09:26:53;;;;;;;;;0.00;0.00;;;;;14.35;82.57;99815.69;5033492;28;45531;-55
2022/12/23 09:29:18;;;;;;;;;0.00;0.00;;;;;14.34;82.39;99843.94;5032126;28;45538;-54
2022/12/23 09:31:44;;;;;;;;;1.00;1.00;;;;;14.37;82.73;99848.16;5033501;28;45544;-54
2022/12/23 09:34:10;;;;;;;;;0.00;0.00;;;;;14.38;82.71;99860.47;5022860;28;45689;-55
2022/12/23 09:36:35;;;;;;;;;2.33;1.00;;;;;14.32;82.37;99832.63;5029718;28;45498;-55
2022/12/23 09:39:01;;;;;;;;;1.00;1.00;;;;;14.34;82.31;99846.56;5033273;28;45504;-56
2022/12/23 09:42:06;;;;;;;;;1.00;1.00;;;;;14.39;82.18;99851.56;5022400;28;45539;-55
2022/12/23 09:44:46;;;;;;;;;0.00;0.00;;;;;14.42;82.43;99871.69;5033583;28;45713;-55
2022/12/23 09:47:17;;;;;;;;;1.00;1.00;;;;;14.40;82.21;99858.59;5035222;28;45527;-54
2022/12/23 09:50:01;;;;;;;;;0.00;0.00;;;;;14.45;82.27;99866.22;5036833;28;45474;-55
2022/12/23 09:52:40;;;;;;;;;0.00;0.00;;;;;14.44;82.98;99859.22;5036902;28;45507;-56
2022/12/23 09:55:09;;;;;;;;;0.00;0.00;;;;;14.42;82.62;99859.31;5036563;28;46701;-55
2022/12/23 09:57:49;;;;;;;;;0.00;0.00;;;;;14.38;81.44;99860.47;5036691;28;45495;-55
2022/12/23 10:00:20;;;;;;;;;0.00;0.00;;;;;14.47;82.04;99866.97;5036800;28;45551;-55
2022/12/23 10:02:54;;;;;;;;;0.00;0.00;;;;;14.49;81.31;99860.63;5036909;28;45566;-55
2022/12/23 10:05:41;;;;;;;;;0.00;0.00;;;;;14.50;81.35;99875.56;5036405;28;45502;-55
2022/12/23 10:08:23;;;;;;;;;0.00;0.00;;;;;14.51;81.49;99857.91;5036502;28;45452;-55
2022/12/23 10:10:55;;;;;;;;;0.00;0.00;;;;;14.53;82.16;99850.72;5031867;28;45535;-55
2022/12/23 10:13:28;;;;;;;;;0.00;0.00;;;;;14.55;81.96;99867.38;5035570;28;45514;-55
2022/12/23 10:15:57;;;;;;;;;0.00;0.00;;;;;14.55;81.33;99859.44;5036160;28;45572;-54
2022/12/23 10:18:34;;;;;;;;;0.00;0.00;;;;;14.55;82.27;99846.19;5036324;28;45476;-55
2022/12/23 10:21:08;;;;;;;;;0.00;0.00;;;;;14.52;82.37;99834.00;5036396;28;45613;-55
2022/12/23 10:23:37;;;;;;;;;0.00;0.00;;;;;14.52;82.68;99836.66;5036403;28;45456;-55
2022/12/23 10:26:19;;;;;;;;;1.00;0.00;;;;;14.56;82.48;99840.81;5036069;28;46126;-55
2022/12/23 10:28:44;;;;;;;;;0.00;0.00;;;;;14.56;83.11;99846.13;5036419;28;45440;-54
2022/12/23 10:31:19;;;;;;;;;0.00;0.00;;;;;14.54;83.04;99841.88;5036156;28;45498;-55
2022/12/23 10:34:03;;;;;;;;;0.00;0.00;;;;;14.51;83.28;99837.59;5029455;28;45531;-56
2022/12/23 10:36:34;;;;;;;;;0.00;0.00;;;;;14.50;83.54;99837.66;5031335;28;45593;-56
2022/12/23 10:39:08;;;;;;;;;0.00;0.00;;;;;14.54;83.52;99847.16;5036175;28;45499;-55
2022/12/23 10:41:48;;;;;;;;;0.00;0.00;;;;;14.52;83.94;99856.94;5022799;28;45503;-57
2022/12/23 10:44:31;;;;;;;;;0.00;0.00;;;;;14.52;83.77;99835.78;5035278;28;45597;-55
2022/12/23 10:47:25;;;;;;;;;0.00;0.00;;;;;14.54;83.88;99847.16;5035864;28;46782;-54
2022/12/23 10:50:24;;;;;;;;;0.00;0.00;;;;;14.56;83.05;99840.81;5035492;28;45582;-55
2022/12/23 10:52:51;;;;;;;;;0.00;0.00;;;;;14.57;82.76;99844.31;5025029;28;45495;-54
2022/12/23 10:55:29;;;;;;;;;0.00;0.00;;;;;14.60;82.89;99833.53;5034882;28;45542;-56
2022/12/23 10:58:04;;;;;;;;;0.00;0.00;;;;;14.60;82.87;99836.16;5034366;28;45508;-56
2022/12/23 11:00:29;;;;;;;;;0.00;0.00;;;;;14.66;82.07;99840.22;5034614;28;45510;-56
2022/12/23 11:03:18;;;;;;;;;0.00;0.00;;;;;14.63;82.18;99812.16;5034898;28;45492;-55
2022/12/23 11:05:45;;;;;;;;;0.00;0.00;;;;;14.67;81.54;99813.66;5034504;28;45524;-55
2022/12/23 11:08:11;;;;;;;;;0.00;0.00;;;;;14.71;81.96;99832.84;5034295;28;45455;-55
2022/12/23 11:10:38;;;;;;;;;0.00;0.00;;;;;14.73;81.67;99841.53;5032655;28;45461;-56
2022/12/23 11:13:04;;;;;;;;;0.00;0.00;;;;;14.69;82.04;99847.97;5034388;28;45450;-55
2022/12/23 11:15:40;;;;;;;;;0.00;0.00;;;;;14.73;81.15;99852.97;5034204;28;45509;-56
2022/12/23 11:18:25;;;;;;;;;0.00;0.00;;;;;14.75;81.08;99852.88;5027638;28;45705;-56
2022/12/23 11:21:03;;;;;;;;;0.00;0.00;;;;;14.75;80.50;99852.88;5033660;28;45512;-55
2022/12/23 11:23:31;;;;;;;;;0.00;0.00;;;;;14.78;80.63;99869.41;5034372;28;45591;-56
2022/12/23 11:25:59;;;;;;;;;0.00;0.00;;;;;14.79;80.45;99865.78;5034035;28;45571;-55
2022/12/23 11:28:25;;;;;;;;;0.33;0.00;;;;;14.77;80.02;99865.03;5033090;28;45510;-56
2022/12/23 11:30:57;;;;;;;;;0.00;0.00;;;;;14.87;79.94;99875.03;5034017;28;45564;-56
2022/12/23 11:33:26;;;;;;;;;0.00;0.00;;;;;14.84;80.24;99869.94;5030249;28;45452;-55
2022/12/23 11:36:04;;;;;;;;;0.33;0.00;;;;;14.88;80.04;99864.34;5014242;28;45474;-56
2022/12/23 11:38:30;;;;;;;;;0.00;0.00;;;;;14.91;79.49;99865.94;5031550;28;45497;-58
2022/12/23 11:40:56;;;;;;;;;0.00;0.00;;;;;14.90;79.86;99870.41;5031789;28;45479;-56
2022/12/23 11:43:24;;;;;;;;;0.00;0.00;;;;;14.91;79.57;99861.53;5033690;28;45591;-56
2022/12/23 11:46:26;;;;;;;;;1.00;1.00;;;;;14.95;79.19;99859.50;5033836;28;45650;-56
2022/12/23 11:51:38;;;;;;;;;0.00;0.00;;;;;14.93;78.95;99842.88;5091171;27;45471;-55
2022/12/23 11:54:03;;;;;;;;;0.00;0.00;;;;;14.98;79.06;99844.25;5069205;27;45484;-55
2022/12/23 11:56:40;;;;;;;;;1.00;1.00;;;;;15.02;78.80;99858.16;5070617;28;45474;-57
2022/12/23 11:59:14;;;;;;;;;1.00;1.00;;;;;15.04;78.32;99856.25;5070506;27;45471;-54
2022/12/23 12:01:47;;;;;;;;;1.00;1.00;;;;;15.02;79.23;99858.16;5070544;28;46400;-55
2022/12/23 12:04:20;;;;;;;;;0.00;0.00;;;;;15.01;77.90;99840.56;5070428;28;45476;-53
2022/12/23 12:06:47;;;;;;;;;3.00;1.67;;;;;15.03;78.30;99841.31;5070186;27;45428;-55